sensor_id;sensor_type;location;lat;lon;timestamp;temperature;humidity
3788;DHT22;1909;53.046;8.276;2022-10-23T00:00:10;12.50;99.90
3788;DHT22;1909;53.046;8.276;2022-10-23T00:02:37;12.50;99.90
3788;DHT22;1909;53.046;8.276;2022-10-23T00:05:05;12.50;99.90
3788;DHT22;1909;53.046;8.276;2022-10-23T00:07:32;12.50;99.90
3788;DHT22;1909;53.046;8.276;2022-10-23T00:09:59;12.60;99.90
3788;DHT22;1909;53.046;8.276;2022-10-23T00:12:26;12.40;99.90
3788;DHT22;1909;53.046;8.276;2022-10-23T00:14:53;12.50;99.90
3788;DHT22;1909;53.046;8.276;2022-10-23T00:17:19;12.60;99.90
3788;DHT22;1909;53.046;8.276;2022-10-23T00:19:46;12.50;99.90
3788;DHT22;1909;53.046;8.276;2022-10-23T00:22:14;12.50;99.90
3788;DHT22;1909;53.046;8.276;2022-10-23T00:24:41;12.50;99.90
3788;DHT22;1909;53.046;8.276;2022-10-23T00:27:08;12.60;99.90
3788;DHT22;1909;53.046;8.276;2022-10-23T00:29:35;12.50;99.90
3788;DHT22;1909;53.046;8.276;2022-10-23T00:32:01;12.60;99.90
3788;DHT22;1909;53.046;8.276;2022-10-23T00:34:28;12.60;99.90
3788;DHT22;1909;53.046;8.276;2022-10-23T00:36:55;12.60;99.90
3788;DHT22;1909;53.046;8.276;2022-10-23T00:39:23;12.60;99.90
3788;DHT22;1909;53.046;8.276;2022-10-23T00:41:49;12.60;99.90
3788;DHT22;1909;53.046;8.276;2022-10-23T00:47:20;12.60;99.90
3788;DHT22;1909;53.046;8.276;2022-10-23T00:49:47;12.60;99.90
3788;DHT22;1909;53.046;8.276;2022-10-23T00:52:14;12.60;99.90
3788;DHT22;1909;53.046;8.276;2022-10-23T00:54:42;12.60;99.90
3788;DHT22;1909;53.046;8.276;2022-10-23T00:57:12;12.60;99.90
3788;DHT22;1909;53.046;8.276;2022-10-23T00:59:39;12.60;99.90
3788;DHT22;1909;53.046;8.276;2022-10-23T01:02:06;12.50;99.90
3788;DHT22;1909;53.046;8.276;2022-10-23T01:04:33;12.50;99.90
3788;DHT22;1909;53.046;8.276;2022-10-23T01:07:04;12.50;99.90
3788;DHT22;1909;53.046;8.276;2022-10-23T01:09:37;12.40;99.90
3788;DHT22;1909;53.046;8.276;2022-10-23T01:12:12;12.30;99.90
3788;DHT22;1909;53.046;8.276;2022-10-23T01:14:48;12.40;99.90
3788;DHT22;1909;53.046;8.276;2022-10-23T01:17:23;12.50;99.90
3788;DHT22;1909;53.046;8.276;2022-10-23T01:20:00;12.40;99.90
3788;DHT22;1909;53.046;8.276;2022-10-23T01:22:45;12.40;99.90
3788;DHT22;1909;53.046;8.276;2022-10-23T01:25:26;12.30;99.90
3788;DHT22;1909;53.046;8.276;2022-10-23T01:28:01;12.40;99.90
3788;DHT22;1909;53.046;8.276;2022-10-23T01:30:29;12.40;99.90
3788;DHT22;1909;53.046;8.276;2022-10-23T01:33:02;12.30;99.90
3788;DHT22;1909;53.046;8.276;2022-10-23T01:35:34;12.20;99.90
3788;DHT22;1909;53.046;8.276;2022-10-23T01:38:04;12.30;99.90
3788;DHT22;1909;53.046;8.276;2022-10-23T01:40:33;12.30;99.90
3788;DHT22;1909;53.046;8.276;2022-10-23T01:43:07;12.30;99.90
3788;DHT22;1909;53.046;8.276;2022-10-23T01:45:39;12.20;99.90
3788;DHT22;1909;53.046;8.276;2022-10-23T01:48:11;12.30;99.90
3788;DHT22;1909;53.046;8.276;2022-10-23T01:50:40;12.20;99.90
3788;DHT22;1909;53.046;8.276;2022-10-23T01:53:08;12.20;99.90
3788;DHT22;1909;53.046;8.276;2022-10-23T01:55:36;12.30;99.90
3788;DHT22;1909;53.046;8.276;2022-10-23T01:58:06;12.20;99.90
3788;DHT22;1909;53.046;8.276;2022-10-23T02:00:34;12.30;99.90
3788;DHT22;1909;53.046;8.276;2022-10-23T02:03:02;12.20;99.90
3788;DHT22;1909;53.046;8.276;2022-10-23T02:05:30;12.20;99.90
3788;DHT22;1909;53.046;8.276;2022-10-23T02:07:57;12.20;99.90
3788;DHT22;1909;53.046;8.276;2022-10-23T02:10:30;12.20;99.90
3788;DHT22;1909;53.046;8.276;2022-10-23T02:13:02;12.10;99.90
3788;DHT22;1909;53.046;8.276;2022-10-23T02:15:35;12.10;99.90
3788;DHT22;1909;53.046;8.276;2022-10-23T02:18:05;12.10;99.90
3788;DHT22;1909;53.046;8.276;2022-10-23T02:20:37;12.10;99.90
3788;DHT22;1909;53.046;8.276;2022-10-23T02:23:13;12.10;99.90
3788;DHT22;1909;53.046;8.276;2022-10-23T02:25:45;12.20;99.90
3788;DHT22;1909;53.046;8.276;2022-10-23T02:28:16;12.10;99.90
3788;DHT22;1909;53.046;8.276;2022-10-23T02:30:49;12.20;99.90
3788;DHT22;1909;53.046;8.276;2022-10-23T02:33:16;12.10;99.90
3788;DHT22;1909;53.046;8.276;2022-10-23T02:35:45;12.20;99.90
3788;DHT22;1909;53.046;8.276;2022-10-23T02:38:30;12.10;99.90
3788;DHT22;1909;53.046;8.276;2022-10-23T02:41:08;12.10;99.90
3788;DHT22;1909;53.046;8.276;2022-10-23T02:43:40;12.10;99.90
3788;DHT22;1909;53.046;8.276;2022-10-23T02:46:15;12.10;99.90
3788;DHT22;1909;53.046;8.276;2022-10-23T02:48:49;12.00;99.90
3788;DHT22;1909;53.046;8.276;2022-10-23T02:51:24;12.00;99.90
3788;DHT22;1909;53.046;8.276;2022-10-23T02:54:04;12.00;99.90
3788;DHT22;1909;53.046;8.276;2022-10-23T02:56:36;12.00;99.90
3788;DHT22;1909;53.046;8.276;2022-10-23T02:59:08;11.90;99.90
3788;DHT22;1909;53.046;8.276;2022-10-23T03:01:43;11.90;99.90
3788;DHT22;1909;53.046;8.276;2022-10-23T03:04:12;11.90;99.90
3788;DHT22;1909;53.046;8.276;2022-10-23T03:06:40;11.80;99.90
3788;DHT22;1909;53.046;8.276;2022-10-23T03:09:08;11.80;99.90
3788;DHT22;1909;53.046;8.276;2022-10-23T03:11:35;11.80;99.90
3788;DHT22;1909;53.046;8.276;2022-10-23T03:14:02;11.80;99.90
3788;DHT22;1909;53.046;8.276;2022-10-23T03:16:29;11.80;99.90
3788;DHT22;1909;53.046;8.276;2022-10-23T03:18:57;11.70;99.90
3788;DHT22;1909;53.046;8.276;2022-10-23T03:21:23;11.80;99.90
3788;DHT22;1909;53.046;8.276;2022-10-23T03:23:50;11.70;99.90
3788;DHT22;1909;53.046;8.276;2022-10-23T03:26:17;11.80;99.90
3788;DHT22;1909;53.046;8.276;2022-10-23T03:28:43;11.70;99.90
3788;DHT22;1909;53.046;8.276;2022-10-23T03:31:10;11.70;99.90
3788;DHT22;1909;53.046;8.276;2022-10-23T03:33:37;11.70;99.90
3788;DHT22;1909;53.046;8.276;2022-10-23T03:36:06;11.70;99.90
3788;DHT22;1909;53.046;8.276;2022-10-23T03:38:33;11.60;99.90
3788;DHT22;1909;53.046;8.276;2022-10-23T03:40:59;11.70;99.90
3788;DHT22;1909;53.046;8.276;2022-10-23T03:43:26;11.70;99.90
3788;DHT22;1909;53.046;8.276;2022-10-23T03:45:54;11.60;99.90
3788;DHT22;1909;53.046;8.276;2022-10-23T03:48:21;11.60;99.90
3788;DHT22;1909;53.046;8.276;2022-10-23T03:50:49;11.60;99.90
3788;DHT22;1909;53.046;8.276;2022-10-23T03:53:17;11.60;99.90
3788;DHT22;1909;53.046;8.276;2022-10-23T03:55:44;11.60;99.90
3788;DHT22;1909;53.046;8.276;2022-10-23T03:58:11;11.70;99.90
3788;DHT22;1909;53.046;8.276;2022-10-23T04:00:38;11.70;99.90
3788;DHT22;1909;53.046;8.276;2022-10-23T04:03:04;11.70;99.90
3788;DHT22;1909;53.046;8.276;2022-10-23T04:05:31;11.70;99.90
3788;DHT22;1909;53.046;8.276;2022-10-23T04:07:58;11.70;99.90
3788;DHT22;1909;53.046;8.276;2022-10-23T04:10:26;11.70;99.90
3788;DHT22;1909;53.046;8.276;2022-10-23T04:12:52;11.70;99.90
3788;DHT22;1909;53.046;8.276;2022-10-23T04:15:19;11.70;99.90
3788;DHT22;1909;53.046;8.276;2022-10-23T04:17:46;11.70;99.90
3788;DHT22;1909;53.046;8.276;2022-10-23T04:20:13;11.60;99.90
3788;DHT22;1909;53.046;8.276;2022-10-23T04:22:39;11.60;99.90
3788;DHT22;1909;53.046;8.276;2022-10-23T04:25:06;11.60;99.90
3788;DHT22;1909;53.046;8.276;2022-10-23T04:27:35;11.50;99.90
3788;DHT22;1909;53.046;8.276;2022-10-23T04:30:02;11.50;99.90
3788;DHT22;1909;53.046;8.276;2022-10-23T04:32:29;11.60;99.90
3788;DHT22;1909;53.046;8.276;2022-10-23T04:34:56;11.50;99.90
3788;DHT22;1909;53.046;8.276;2022-10-23T04:37:23;11.50;99.90
3788;DHT22;1909;53.046;8.276;2022-10-23T04:39:50;11.50;99.90
3788;DHT22;1909;53.046;8.276;2022-10-23T04:42:16;11.50;99.90
3788;DHT22;1909;53.046;8.276;2022-10-23T04:44:44;11.50;99.90
3788;DHT22;1909;53.046;8.276;2022-10-23T04:47:11;12.50;99.90
3788;DHT22;1909;53.046;8.276;2022-10-23T04:49:38;11.50;99.90
3788;DHT22;1909;53.046;8.276;2022-10-23T04:52:04;11.40;99.90
3788;DHT22;1909;53.046;8.276;2022-10-23T04:54:34;11.40;99.90
3788;DHT22;1909;53.046;8.276;2022-10-23T04:57:01;11.50;99.90
3788;DHT22;1909;53.046;8.276;2022-10-23T04:59:28;11.50;99.90
3788;DHT22;1909;53.046;8.276;2022-10-23T05:01:56;11.50;99.90
3788;DHT22;1909;53.046;8.276;2022-10-23T05:04:23;11.40;99.90
3788;DHT22;1909;53.046;8.276;2022-10-23T05:06:49;11.50;99.90
3788;DHT22;1909;53.046;8.276;2022-10-23T05:09:16;11.50;99.90
3788;DHT22;1909;53.046;8.276;2022-10-23T05:11:43;11.40;99.90
3788;DHT22;1909;53.046;8.276;2022-10-23T05:14:09;11.40;99.90
3788;DHT22;1909;53.046;8.276;2022-10-23T05:16:40;11.50;99.90
3788;DHT22;1909;53.046;8.276;2022-10-23T05:19:12;11.40;99.90
3788;DHT22;1909;53.046;8.276;2022-10-23T05:21:40;11.60;99.90
3788;DHT22;1909;53.046;8.276;2022-10-23T05:24:08;11.40;99.90
3788;DHT22;1909;53.046;8.276;2022-10-23T05:26:35;11.40;99.90
3788;DHT22;1909;53.046;8.276;2022-10-23T05:29:02;11.40;99.90
3788;DHT22;1909;53.046;8.276;2022-10-23T05:31:29;11.40;99.90
3788;DHT22;1909;53.046;8.276;2022-10-23T05:33:56;11.40;99.90
3788;DHT22;1909;53.046;8.276;2022-10-23T05:36:24;11.40;99.90
3788;DHT22;1909;53.046;8.276;2022-10-23T05:38:52;11.30;99.90
3788;DHT22;1909;53.046;8.276;2022-10-23T05:41:19;11.20;99.90
3788;DHT22;1909;53.046;8.276;2022-10-23T05:43:46;11.20;99.90
3788;DHT22;1909;53.046;8.276;2022-10-23T05:46:13;11.20;99.90
3788;DHT22;1909;53.046;8.276;2022-10-23T05:48:39;11.20;99.90
3788;DHT22;1909;53.046;8.276;2022-10-23T05:51:08;11.30;99.90
3788;DHT22;1909;53.046;8.276;2022-10-23T05:53:36;11.30;99.90
3788;DHT22;1909;53.046;8.276;2022-10-23T05:56:03;11.30;99.90
3788;DHT22;1909;53.046;8.276;2022-10-23T05:58:31;11.30;99.90
3788;DHT22;1909;53.046;8.276;2022-10-23T06:00:58;11.20;99.90
3788;DHT22;1909;53.046;8.276;2022-10-23T06:03:25;11.20;99.90
3788;DHT22;1909;53.046;8.276;2022-10-23T06:05:52;11.30;99.90
3788;DHT22;1909;53.046;8.276;2022-10-23T06:08:18;11.20;99.90
3788;DHT22;1909;53.046;8.276;2022-10-23T06:10:46;11.20;99.90
3788;DHT22;1909;53.046;8.276;2022-10-23T06:13:13;11.20;99.90
3788;DHT22;1909;53.046;8.276;2022-10-23T06:15:40;11.10;99.90
3788;DHT22;1909;53.046;8.276;2022-10-23T06:18:07;11.10;99.90
3788;DHT22;1909;53.046;8.276;2022-10-23T06:20:35;11.10;99.90
3788;DHT22;1909;53.046;8.276;2022-10-23T06:23:02;11.10;99.90
3788;DHT22;1909;53.046;8.276;2022-10-23T06:25:29;11.10;99.90
3788;DHT22;1909;53.046;8.276;2022-10-23T06:27:57;11.00;99.90
3788;DHT22;1909;53.046;8.276;2022-10-23T06:30:24;11.00;99.90
3788;DHT22;1909;53.046;8.276;2022-10-23T06:32:50;11.00;99.90
3788;DHT22;1909;53.046;8.276;2022-10-23T06:35:17;11.00;99.90
3788;DHT22;1909;53.046;8.276;2022-10-23T06:37:44;11.00;99.90
3788;DHT22;1909;53.046;8.276;2022-10-23T06:40:11;11.00;99.90
3788;DHT22;1909;53.046;8.276;2022-10-23T06:42:38;11.10;99.90
3788;DHT22;1909;53.046;8.276;2022-10-23T06:45:07;11.10;99.90
3788;DHT22;1909;53.046;8.276;2022-10-23T06:47:33;11.10;99.90
3788;DHT22;1909;53.046;8.276;2022-10-23T06:50:00;11.10;99.90
3788;DHT22;1909;53.046;8.276;2022-10-23T06:52:27;11.10;99.90
3788;DHT22;1909;53.046;8.276;2022-10-23T06:54:56;11.10;99.90
3788;DHT22;1909;53.046;8.276;2022-10-23T06:57:22;11.10;99.90
3788;DHT22;1909;53.046;8.276;2022-10-23T06:59:49;11.10;99.90
3788;DHT22;1909;53.046;8.276;2022-10-23T07:02:17;11.10;99.90
3788;DHT22;1909;53.046;8.276;2022-10-23T07:04:44;11.10;99.90
3788;DHT22;1909;53.046;8.276;2022-10-23T07:07:10;11.10;99.90
3788;DHT22;1909;53.046;8.276;2022-10-23T07:09:37;11.00;99.90
3788;DHT22;1909;53.046;8.276;2022-10-23T07:12:04;11.10;99.90
3788;DHT22;1909;53.046;8.276;2022-10-23T07:14:31;11.10;99.90
3788;DHT22;1909;53.046;8.276;2022-10-23T07:16:58;11.00;99.90
3788;DHT22;1909;53.046;8.276;2022-10-23T07:19:26;11.00;99.90
3788;DHT22;1909;53.046;8.276;2022-10-23T07:21:53;11.00;99.90
3788;DHT22;1909;53.046;8.276;2022-10-23T07:24:19;11.00;99.90
3788;DHT22;1909;53.046;8.276;2022-10-23T07:26:46;11.00;99.90
3788;DHT22;1909;53.046;8.276;2022-10-23T07:29:13;11.00;99.90
3788;DHT22;1909;53.046;8.276;2022-10-23T07:31:40;11.00;99.90
3788;DHT22;1909;53.046;8.276;2022-10-23T07:34:06;11.10;99.90
3788;DHT22;1909;53.046;8.276;2022-10-23T07:36:34;11.00;99.90
3788;DHT22;1909;53.046;8.276;2022-10-23T07:39:01;11.00;99.90
3788;DHT22;1909;53.046;8.276;2022-10-23T07:41:28;11.00;99.90
3788;DHT22;1909;53.046;8.276;2022-10-23T07:43:54;11.00;99.90
3788;DHT22;1909;53.046;8.276;2022-10-23T07:46:21;11.00;99.90
3788;DHT22;1909;53.046;8.276;2022-10-23T07:48:48;11.10;99.90
3788;DHT22;1909;53.046;8.276;2022-10-23T07:51:15;11.10;99.90
3788;DHT22;1909;53.046;8.276;2022-10-23T07:53:43;11.00;99.90
3788;DHT22;1909;53.046;8.276;2022-10-23T07:56:13;11.00;99.90
3788;DHT22;1909;53.046;8.276;2022-10-23T07:58:40;11.10;99.90
3788;DHT22;1909;53.046;8.276;2022-10-23T08:01:14;11.00;99.90
3788;DHT22;1909;53.046;8.276;2022-10-23T08:03:41;11.10;99.90
3788;DHT22;1909;53.046;8.276;2022-10-23T08:06:07;11.10;99.90
3788;DHT22;1909;53.046;8.276;2022-10-23T08:08:34;11.10;99.90
3788;DHT22;1909;53.046;8.276;2022-10-23T08:11:02;11.10;99.90
3788;DHT22;1909;53.046;8.276;2022-10-23T08:13:29;11.20;99.90
3788;DHT22;1909;53.046;8.276;2022-10-23T08:15:56;11.20;99.90
3788;DHT22;1909;53.046;8.276;2022-10-23T08:18:23;11.20;99.90
3788;DHT22;1909;53.046;8.276;2022-10-23T08:20:49;11.10;99.90
3788;DHT22;1909;53.046;8.276;2022-10-23T08:23:18;11.10;99.90
3788;DHT22;1909;53.046;8.276;2022-10-23T08:25:45;11.10;99.90
3788;DHT22;1909;53.046;8.276;2022-10-23T08:28:13;11.10;99.90
3788;DHT22;1909;53.046;8.276;2022-10-23T08:30:41;11.20;99.90
3788;DHT22;1909;53.046;8.276;2022-10-23T08:33:08;11.20;99.90
3788;DHT22;1909;53.046;8.276;2022-10-23T08:35:35;11.10;99.90
3788;DHT22;1909;53.046;8.276;2022-10-23T08:38:03;11.20;99.90
3788;DHT22;1909;53.046;8.276;2022-10-23T08:40:29;11.20;99.90
3788;DHT22;1909;53.046;8.276;2022-10-23T08:43:00;11.20;99.90
3788;DHT22;1909;53.046;8.276;2022-10-23T08:45:34;11.20;99.90
3788;DHT22;1909;53.046;8.276;2022-10-23T08:48:09;11.20;99.90
3788;DHT22;1909;53.046;8.276;2022-10-23T08:50:41;11.20;99.90
3788;DHT22;1909;53.046;8.276;2022-10-23T08:53:15;11.40;99.90
3788;DHT22;1909;53.046;8.276;2022-10-23T08:55:46;11.40;99.90
3788;DHT22;1909;53.046;8.276;2022-10-23T08:58:18;11.40;99.90
3788;DHT22;1909;53.046;8.276;2022-10-23T09:00:50;11.30;99.90
3788;DHT22;1909;53.046;8.276;2022-10-23T09:03:17;11.40;99.90
3788;DHT22;1909;53.046;8.276;2022-10-23T09:05:56;11.30;99.90
3788;DHT22;1909;53.046;8.276;2022-10-23T09:08:38;11.20;99.90
3788;DHT22;1909;53.046;8.276;2022-10-23T09:11:15;11.30;99.90
3788;DHT22;1909;53.046;8.276;2022-10-23T09:13:58;11.40;99.90
3788;DHT22;1909;53.046;8.276;2022-10-23T09:16:39;11.40;99.90
3788;DHT22;1909;53.046;8.276;2022-10-23T09:19:11;11.40;99.90
3788;DHT22;1909;53.046;8.276;2022-10-23T09:21:38;11.50;99.90
3788;DHT22;1909;53.046;8.276;2022-10-23T09:24:09;11.40;99.90
3788;DHT22;1909;53.046;8.276;2022-10-23T09:26:36;11.50;99.90
3788;DHT22;1909;53.046;8.276;2022-10-23T09:29:16;11.40;99.90
3788;DHT22;1909;53.046;8.276;2022-10-23T09:31:50;11.60;99.90
3788;DHT22;1909;53.046;8.276;2022-10-23T09:34:19;11.50;99.90
3788;DHT22;1909;53.046;8.276;2022-10-23T09:36:52;11.90;99.90
3788;DHT22;1909;53.046;8.276;2022-10-23T09:39:25;11.90;99.90
3788;DHT22;1909;53.046;8.276;2022-10-23T09:41:53;12.00;99.90
3788;DHT22;1909;53.046;8.276;2022-10-23T09:44:21;12.00;99.90
3788;DHT22;1909;53.046;8.276;2022-10-23T09:46:51;12.00;99.90
3788;DHT22;1909;53.046;8.276;2022-10-23T09:49:21;11.90;99.90
3788;DHT22;1909;53.046;8.276;2022-10-23T09:54:36;12.50;99.90
3788;DHT22;1909;53.046;8.276;2022-10-23T09:57:14;12.90;99.90
3788;DHT22;1909;53.046;8.276;2022-10-23T09:59:49;12.30;99.90
3788;DHT22;1909;53.046;8.276;2022-10-23T10:02:25;12.40;99.90
3788;DHT22;1909;53.046;8.276;2022-10-23T10:04:52;12.10;99.90
3788;DHT22;1909;53.046;8.276;2022-10-23T10:07:21;12.20;99.90
3788;DHT22;1909;53.046;8.276;2022-10-23T10:09:48;12.20;99.90
3788;DHT22;1909;53.046;8.276;2022-10-23T10:12:28;12.30;99.90
3788;DHT22;1909;53.046;8.276;2022-10-23T10:15:03;12.50;99.90
3788;DHT22;1909;53.046;8.276;2022-10-23T10:17:40;12.30;99.90
3788;DHT22;1909;53.046;8.276;2022-10-23T10:20:28;12.90;99.90
3788;DHT22;1909;53.046;8.276;2022-10-23T10:23:03;12.70;99.90
3788;DHT22;1909;53.046;8.276;2022-10-23T10:25:35;12.30;99.90
3788;DHT22;1909;53.046;8.276;2022-10-23T10:28:17;12.90;99.90
3788;DHT22;1909;53.046;8.276;2022-10-23T10:30:57;13.20;99.90
3788;DHT22;1909;53.046;8.276;2022-10-23T10:33:32;13.00;99.90
3788;DHT22;1909;53.046;8.276;2022-10-23T10:36:04;13.00;99.90
3788;DHT22;1909;53.046;8.276;2022-10-23T10:38:42;13.00;99.90
3788;DHT22;1909;53.046;8.276;2022-10-23T10:41:21;12.60;99.90
3788;DHT22;1909;53.046;8.276;2022-10-23T10:44:11;12.60;99.90
3788;DHT22;1909;53.046;8.276;2022-10-23T10:46:45;12.60;99.90
3788;DHT22;1909;53.046;8.276;2022-10-23T10:49:21;12.20;99.90
3788;DHT22;1909;53.046;8.276;2022-10-23T10:51:55;12.50;99.90
3788;DHT22;1909;53.046;8.276;2022-10-23T10:54:36;13.20;99.90
3788;DHT22;1909;53.046;8.276;2022-10-23T10:57:21;12.60;99.90
3788;DHT22;1909;53.046;8.276;2022-10-23T10:59:50;12.70;99.90
3788;DHT22;1909;53.046;8.276;2022-10-23T11:02:24;13.00;99.90
3788;DHT22;1909;53.046;8.276;2022-10-23T11:04:57;13.30;99.90
3788;DHT22;1909;53.046;8.276;2022-10-23T11:07:31;13.10;99.90
3788;DHT22;1909;53.046;8.276;2022-10-23T11:10:02;12.80;99.90
3788;DHT22;1909;53.046;8.276;2022-10-23T11:12:29;12.70;99.90
3788;DHT22;1909;53.046;8.276;2022-10-23T11:14:56;12.90;99.90
3788;DHT22;1909;53.046;8.276;2022-10-23T11:17:25;12.90;99.90
3788;DHT22;1909;53.046;8.276;2022-10-23T11:19:58;13.30;99.90
3788;DHT22;1909;53.046;8.276;2022-10-23T11:22:32;13.60;99.90
3788;DHT22;1909;53.046;8.276;2022-10-23T11:25:26;13.10;99.90
3788;DHT22;1909;53.046;8.276;2022-10-23T11:28:12;13.40;99.90
3788;DHT22;1909;53.046;8.276;2022-10-23T11:30:53;13.70;99.90
3788;DHT22;1909;53.046;8.276;2022-10-23T11:33:50;13.30;99.90
3788;DHT22;1909;53.046;8.276;2022-10-23T11:36:38;13.90;99.90
3788;DHT22;1909;53.046;8.276;2022-10-23T11:39:15;14.30;99.90
3788;DHT22;1909;53.046;8.276;2022-10-23T11:41:48;13.80;99.90
3788;DHT22;1909;53.046;8.276;2022-10-23T11:44:27;14.10;99.90
3788;DHT22;1909;53.046;8.276;2022-10-23T11:47:06;13.60;99.90
3788;DHT22;1909;53.046;8.276;2022-10-23T11:49:50;13.40;99.90
3788;DHT22;1909;53.046;8.276;2022-10-23T11:52:23;13.40;99.90
3788;DHT22;1909;53.046;8.276;2022-10-23T11:55:00;13.40;99.90
3788;DHT22;1909;53.046;8.276;2022-10-23T11:57:27;13.90;99.90
3788;DHT22;1909;53.046;8.276;2022-10-23T11:59:54;13.60;99.90
3788;DHT22;1909;53.046;8.276;2022-10-23T12:02:27;13.70;99.90
3788;DHT22;1909;53.046;8.276;2022-10-23T12:04:57;13.60;99.90
3788;DHT22;1909;53.046;8.276;2022-10-23T12:07:29;13.70;99.90
3788;DHT22;1909;53.046;8.276;2022-10-23T12:09:59;13.60;99.90
3788;DHT22;1909;53.046;8.276;2022-10-23T12:12:29;13.40;99.90
3788;DHT22;1909;53.046;8.276;2022-10-23T12:15:20;13.60;99.90
3788;DHT22;1909;53.046;8.276;2022-10-23T12:17:49;13.70;99.90
3788;DHT22;1909;53.046;8.276;2022-10-23T12:20:21;13.90;99.90
3788;DHT22;1909;53.046;8.276;2022-10-23T12:25:43;13.70;99.90
3788;DHT22;1909;53.046;8.276;2022-10-23T12:28:25;13.80;99.90
3788;DHT22;1909;53.046;8.276;2022-10-23T12:31:03;13.70;99.90
3788;DHT22;1909;53.046;8.276;2022-10-23T12:33:41;13.70;99.90
3788;DHT22;1909;53.046;8.276;2022-10-23T12:39:27;13.80;99.90
3788;DHT22;1909;53.046;8.276;2022-10-23T12:41:54;14.10;99.90
3788;DHT22;1909;53.046;8.276;2022-10-23T12:44:22;14.20;99.90
3788;DHT22;1909;53.046;8.276;2022-10-23T12:46:53;14.40;99.90
3788;DHT22;1909;53.046;8.276;2022-10-23T12:49:21;14.50;99.90
3788;DHT22;1909;53.046;8.276;2022-10-23T12:51:54;14.40;99.90
3788;DHT22;1909;53.046;8.276;2022-10-23T12:54:21;14.40;99.90
3788;DHT22;1909;53.046;8.276;2022-10-23T12:56:49;14.20;99.90
3788;DHT22;1909;53.046;8.276;2022-10-23T12:59:19;14.20;99.90
3788;DHT22;1909;53.046;8.276;2022-10-23T13:01:46;14.10;99.90
3788;DHT22;1909;53.046;8.276;2022-10-23T13:04:22;14.30;99.90
3788;DHT22;1909;53.046;8.276;2022-10-23T13:06:51;14.10;99.90
3788;DHT22;1909;53.046;8.276;2022-10-23T13:09:23;14.20;99.90
3788;DHT22;1909;53.046;8.276;2022-10-23T13:11:51;14.40;99.90
3788;DHT22;1909;53.046;8.276;2022-10-23T13:14:33;14.40;99.90
3788;DHT22;1909;53.046;8.276;2022-10-23T13:17:01;14.30;99.90
3788;DHT22;1909;53.046;8.276;2022-10-23T13:19:28;14.50;99.90
3788;DHT22;1909;53.046;8.276;2022-10-23T13:21:55;14.50;99.90
3788;DHT22;1909;53.046;8.276;2022-10-23T13:24:25;14.50;99.90
3788;DHT22;1909;53.046;8.276;2022-10-23T13:26:54;14.50;99.90
3788;DHT22;1909;53.046;8.276;2022-10-23T13:29:24;14.40;99.90
3788;DHT22;1909;53.046;8.276;2022-10-23T13:31:52;14.60;99.90
3788;DHT22;1909;53.046;8.276;2022-10-23T13:34:23;14.80;99.90
3788;DHT22;1909;53.046;8.276;2022-10-23T13:36:57;14.90;99.90
3788;DHT22;1909;53.046;8.276;2022-10-23T13:39:26;14.80;99.90
3788;DHT22;1909;53.046;8.276;2022-10-23T13:41:56;15.00;99.90
3788;DHT22;1909;53.046;8.276;2022-10-23T13:44:24;14.90;99.90
3788;DHT22;1909;53.046;8.276;2022-10-23T13:46:51;15.00;99.90
3788;DHT22;1909;53.046;8.276;2022-10-23T13:49:18;15.00;99.90
3788;DHT22;1909;53.046;8.276;2022-10-23T13:51:48;14.80;99.90
3788;DHT22;1909;53.046;8.276;2022-10-23T13:54:18;15.00;99.90
3788;DHT22;1909;53.046;8.276;2022-10-23T13:56:45;14.80;99.90
3788;DHT22;1909;53.046;8.276;2022-10-23T13:59:13;14.80;99.90
3788;DHT22;1909;53.046;8.276;2022-10-23T14:01:41;14.90;99.90
3788;DHT22;1909;53.046;8.276;2022-10-23T14:04:08;15.00;99.90
3788;DHT22;1909;53.046;8.276;2022-10-23T14:06:36;14.90;99.90
3788;DHT22;1909;53.046;8.276;2022-10-23T14:09:03;14.80;99.90
3788;DHT22;1909;53.046;8.276;2022-10-23T14:11:31;14.80;99.90
3788;DHT22;1909;53.046;8.276;2022-10-23T14:13:57;14.90;99.90
3788;DHT22;1909;53.046;8.276;2022-10-23T14:16:26;14.80;99.90
3788;DHT22;1909;53.046;8.276;2022-10-23T14:18:53;14.80;99.90
3788;DHT22;1909;53.046;8.276;2022-10-23T14:21:21;14.90;99.90
3788;DHT22;1909;53.046;8.276;2022-10-23T14:23:49;14.90;99.90
3788;DHT22;1909;53.046;8.276;2022-10-23T14:26:17;15.20;99.90
3788;DHT22;1909;53.046;8.276;2022-10-23T14:28:44;15.30;99.90
3788;DHT22;1909;53.046;8.276;2022-10-23T14:31:12;15.10;99.90
3788;DHT22;1909;53.046;8.276;2022-10-23T14:33:41;15.00;99.90
3788;DHT22;1909;53.046;8.276;2022-10-23T14:36:09;15.10;99.90
3788;DHT22;1909;53.046;8.276;2022-10-23T14:38:36;15.50;99.90
3788;DHT22;1909;53.046;8.276;2022-10-23T14:41:08;15.30;99.90
3788;DHT22;1909;53.046;8.276;2022-10-23T14:43:35;15.30;99.90
3788;DHT22;1909;53.046;8.276;2022-10-23T14:46:10;15.10;99.90
3788;DHT22;1909;53.046;8.276;2022-10-23T14:48:37;15.10;99.90
3788;DHT22;1909;53.046;8.276;2022-10-23T14:51:13;15.20;99.90
3788;DHT22;1909;53.046;8.276;2022-10-23T14:53:41;15.10;99.90
3788;DHT22;1909;53.046;8.276;2022-10-23T14:56:07;15.10;99.90
3788;DHT22;1909;53.046;8.276;2022-10-23T14:58:34;15.00;99.90
3788;DHT22;1909;53.046;8.276;2022-10-23T15:01:01;15.10;99.90
3788;DHT22;1909;53.046;8.276;2022-10-23T15:03:28;15.10;99.90
3788;DHT22;1909;53.046;8.276;2022-10-23T15:05:55;15.10;99.90
3788;DHT22;1909;53.046;8.276;2022-10-23T15:08:24;15.10;99.90
3788;DHT22;1909;53.046;8.276;2022-10-23T15:10:51;15.10;99.90
3788;DHT22;1909;53.046;8.276;2022-10-23T15:13:17;15.10;99.90
3788;DHT22;1909;53.046;8.276;2022-10-23T15:15:44;15.20;99.90
3788;DHT22;1909;53.046;8.276;2022-10-23T15:18:11;15.20;99.90
3788;DHT22;1909;53.046;8.276;2022-10-23T15:20:40;15.30;99.90
3788;DHT22;1909;53.046;8.276;2022-10-23T15:23:07;15.20;99.90
3788;DHT22;1909;53.046;8.276;2022-10-23T15:25:41;15.20;99.90
3788;DHT22;1909;53.046;8.276;2022-10-23T15:28:07;15.30;99.90
3788;DHT22;1909;53.046;8.276;2022-10-23T15:30:34;15.30;99.90
3788;DHT22;1909;53.046;8.276;2022-10-23T15:33:07;15.20;99.90
3788;DHT22;1909;53.046;8.276;2022-10-23T15:35:34;15.20;99.90
3788;DHT22;1909;53.046;8.276;2022-10-23T15:38:00;15.20;99.90
3788;DHT22;1909;53.046;8.276;2022-10-23T15:40:27;15.20;99.90
3788;DHT22;1909;53.046;8.276;2022-10-23T15:42:55;15.20;99.90
3788;DHT22;1909;53.046;8.276;2022-10-23T15:45:22;15.20;99.90
3788;DHT22;1909;53.046;8.276;2022-10-23T15:47:49;15.20;99.90
3788;DHT22;1909;53.046;8.276;2022-10-23T15:50:16;15.30;99.90
3788;DHT22;1909;53.046;8.276;2022-10-23T15:52:42;15.30;99.90
3788;DHT22;1909;53.046;8.276;2022-10-23T15:55:09;15.20;99.90
3788;DHT22;1909;53.046;8.276;2022-10-23T15:57:37;15.20;99.90
3788;DHT22;1909;53.046;8.276;2022-10-23T16:00:07;15.20;99.90
3788;DHT22;1909;53.046;8.276;2022-10-23T16:02:34;15.20;99.90
3788;DHT22;1909;53.046;8.276;2022-10-23T16:05:01;15.20;99.90
3788;DHT22;1909;53.046;8.276;2022-10-23T16:07:28;15.20;99.90
3788;DHT22;1909;53.046;8.276;2022-10-23T16:09:55;15.30;99.90
3788;DHT22;1909;53.046;8.276;2022-10-23T16:12:22;15.20;99.90
3788;DHT22;1909;53.046;8.276;2022-10-23T16:14:49;15.20;99.90
3788;DHT22;1909;53.046;8.276;2022-10-23T16:17:17;15.20;99.90
3788;DHT22;1909;53.046;8.276;2022-10-23T16:19:44;15.20;99.90
3788;DHT22;1909;53.046;8.276;2022-10-23T16:22:11;15.20;99.90
3788;DHT22;1909;53.046;8.276;2022-10-23T16:24:39;15.20;99.90
3788;DHT22;1909;53.046;8.276;2022-10-23T16:27:06;15.20;99.90
3788;DHT22;1909;53.046;8.276;2022-10-23T16:29:32;15.20;99.90